CheckWX is a tool to help pilots better visualize weather data.  It is not intended as a substitute for an official pre-flight weather briefing.

13:18:42 UTC

KSWF TAF
Stewart International Airport
New York, New York, USA
KSWF 181123Z 1812/1918 VRB03KT 2SM BR BKN003 TEMPO 1813/1815 6SM BR SCT025 BKN050 FM181500 21008KT P6SM SCT040 PROB30 1821/1901 -TSRA BKN040CB FM191000 21005KT P6SM VCSH SCT040 FM191400 25006KT P6SM SCT040 BKN250 AMD NOT SKED

Aug-18@
12:00 UTC

Aug-18 @ 12:00 UTC

Aug-18@
15:00 UTC

Aug-18 @ 15:00 UTC

KSWF 181123Z 1812/1918 VRB03KT 2SM BR BKN003
Wind
  • Variable at 3 KTS
Conditions
Mist
Cloud Levels
  • Broken at 300' AGL

Aug-18@
13:00 UTC

Aug-18 @ 13:00 UTC

Aug-18@
15:00 UTC

Aug-18 @ 15:00 UTC

TEMPO 1813/1815 6SM BR SCT025 BKN050

Temporary

Temporary Changes expected for less than half the time period

Conditions
Mist
Cloud Levels
  • Scattered at 2,500' AGL
  • Broken at 5,000' AGL

Aug-18@
15:00 UTC

Aug-18 @ 15:00 UTC

Aug-19@
10:00 UTC

Aug-19 @ 10:00 UTC

FM181500 21008KT P6SM SCT040

From

From Standard forecast or significant change

Wind
  • 210° at 8 KTS
Cloud Levels
  • Scattered at 4,000' AGL

Aug-18@
21:00 UTC

Aug-18 @ 21:00 UTC

Aug-19@
01:00 UTC

Aug-19 @ 01:00 UTC

PROB30 1821/1901 -TSRA BKN040CB

Probable - 30% Likelihood

Probable - 30% Likelihood during this time.

Conditions
Light Thunderstorm, Light Rain
Cloud Levels
  • Broken at 4,000' AGL

Aug-19@
10:00 UTC

Aug-19 @ 10:00 UTC

Aug-19@
14:00 UTC

Aug-19 @ 14:00 UTC

FM191000 21005KT P6SM VCSH SCT040

From

From Standard forecast or significant change

Wind
  • 210° at 5 KTS
Cloud Levels
  • Scattered at 4,000' AGL

Aug-19@
14:00 UTC

Aug-19 @ 14:00 UTC

Aug-19@
18:00 UTC

Aug-19 @ 18:00 UTC

FM191400 25006KT P6SM SCT040 BKN250 AMD NOT SKED

From

From Standard forecast or significant change

Wind
  • 250° at 6 KTS
Cloud Levels
  • Scattered at 4,000' AGL
  • Broken at 25,000' AGL